Main page
METAR-TAF:

METAR-TAF

Airports :

Santiago de Compostela Airport

Santiago de Compostela, Spain

latitude: 42-54N, longitude: 008-26W, elevation: 370 m

Current weather observation

The report was made 18 minutes ago, at 09:30 UTC
Wind 9 kt from the South/Southeast
Temperature 14°C
Humidity 77%
Pressure 1012 hPa
Visibility 10 km or more
no clouds below 1500 m and no cumulonimbus

METAR: LEST 170930Z 15009KT CAVOK 14/10 Q1012 NOSIG

Time: 10:48 (09:48 UTC)

Forecast

The report was made 4 hours and 48 minutes ago, at 05:00 UTC
Forecast valid from 17 at 06 UTC to 18 at 06 UTC
Wind 7 kt from the South/Southeast
Visibility 10 km or more
Scattered clouds at a height of 4000 ft
Probability 40% :
Temporary
from 17 at 12 UTC to 17 at 17 UTC
Wind 15 kt from the Southeast with gusts up to 25 kt
Scattered clouds at a height of 3000 ft, Towering cumulus.

TAF: LEST 170500Z 1706/1806 15007KT 9999 SCT040 TX18/1715Z TN09/1806Z PROB40 TEMPO 1712/1717 14015G25KT SCT030TCU

Weather observations and forecasts of more than 4000 airports (METAR and TAF reports).

The available stations are represented by yellow and red dots on the map.

Hover mouse over dot to see the name of the station.

Then click to see weather observations and forecasts.

To change the map : click on the green buttons with a black cross to zoom in, on the green button with a dash to zoom out, or on the green arrows for adjacent maps.


METAR-TAF: